Nur fliegen ist schöner ....

Willkommen beim Flugservice Bautzen GmbH

Wir sind eine nach europäischen Richtlinien zugelassene Flugschule und lizenziertes Luftfahrtunternehmen. Bei uns können sie nicht nur Rundflüge über die Oberlausitz oder Sachsen buchen, sondern in unserer Flugschule selber das Fliegen erlernen. Erfahrene Fluglehrer stehen Ihnen dabei zur Seite.

Wir bieten Ihnen außerdem spezielle Flüge zur Vermessung oder Fotoflüge für Luftbildaufnahmen an. In Zusammenarbeit mit dem Fallschirmsportclub Dresden und dem Cottbuser Fallschirmsportclub setzen wir am Flugplatz Bautzen und Neuhausen Fallschirmspringer ab.
Schauen Sie sich in Ruhe bei uns um und wenn Sie Fragen haben oder weitere Informationen benötigen, scheuen Sie sich nicht Kontakt mit uns aufzunehmen.

Gutscheine für Rundflüge und Tandemsprünge können Sie ganz leicht auch online in unserem Shop erwerben.

Terminkalender

Letzter Monat Mai 2021 Nächster Monat
Mo Di Mi Do Fr Sa So
week 17 1 2
week 18 3 4 5 6 7 8 9
week 19 10 11 12 13 14 15 16
week 20 17 18 19 20 21 22 23
week 21 24 25 26 27 28 29 30
week 22 31

Flugwetterinfo

[Quelle: ADDS]
METAR
EDDC 181650Z 32003KT 290V360 9999 VCSH SCT040CB 14/07 Q1011 TEMPO 27015G25KT TSRA =
EDDC 181100Z 1812/1912 28010KT 9999 SCT040 TEMPO 1812/1818 SHRA SCT025CB PROB30 TEMPO 1813/1816 27015G25KT -TSRA BECMG 1817/1819 26005KT PROB40 TEMPO 1823/1907 4000 SHRA BKN012TCU
TAF
EDDC 181100Z 1812/1912 28010KT 9999 SCT040 TEMPO 1812/1818 SHRA SCT025CB PROB30 TEMPO 1813/1816 27015G25KT -TSRA BECMG 1817/1819 26005KT PROB40 TEMPO 1823/1907 4000 SHRA BKN012TCU =
SR / SS: 03:06 / 18:50 UTC (EDAB Flugplatz Bautzen 2021-05-18)

Öffnungszeiten

des Flugplatzes Bautzen erfahren Sie hier:

flugplatz bautzen logo
Flugservice Bautzen GmbH, Kornmarkt 34, 02625 Bautzen  Telefon: +49 (3591) 211105, Telefax: +49 (3591) 274512, E-Mail:  flugservice(at)fsbautzen.de